createdAt,value
2018-02-15T00:00:44.559Z,0
2018-02-15T00:01:44.537Z,0
2018-02-15T00:02:44.781Z,0
2018-02-15T00:03:45.023Z,0
2018-02-15T00:04:45.005Z,0
2018-02-15T00:05:44.712Z,0
2018-02-15T00:06:44.691Z,0
2018-02-15T00:07:44.412Z,0
2018-02-15T00:08:44.126Z,0
2018-02-15T00:09:44.416Z,0
2018-02-15T00:10:44.869Z,0
2018-02-15T00:11:44.324Z,0
2018-02-15T00:12:44.299Z,0
2018-02-15T00:13:44.277Z,0
2018-02-15T00:14:44.262Z,0
2018-02-15T00:15:44.750Z,0
2018-02-15T00:16:44.753Z,0
2018-02-15T00:17:44.712Z,0
2018-02-15T00:18:44.425Z,0
2018-02-15T00:19:44.135Z,0
2018-02-15T00:20:44.400Z,0
2018-02-15T00:21:44.097Z,0
2018-02-15T00:22:44.335Z,0
2018-02-15T00:23:44.570Z,0
2018-02-15T00:24:44.289Z,0
2018-02-15T00:25:44.536Z,0
2018-02-15T00:26:43.985Z,0
2018-02-15T00:27:44.221Z,0
2018-02-15T00:28:44.473Z,0
2018-02-15T00:29:43.912Z,0
2018-02-15T00:30:44.415Z,0
2018-02-15T00:31:44.129Z,0
2018-02-15T00:32:44.109Z,0
2018-02-15T00:33:44.089Z,0
2018-02-15T00:34:44.326Z,0
2018-02-15T00:35:44.066Z,0
2018-02-15T00:36:43.754Z,0
2018-02-15T00:37:44.265Z,0
2018-02-15T00:38:43.977Z,0
2018-02-15T00:39:43.426Z,0
2018-02-15T00:40:43.957Z,0
2018-02-15T00:41:43.682Z,0
2018-02-15T00:42:44.160Z,0
2018-02-15T00:43:43.861Z,0
2018-02-15T00:44:44.108Z,0
2018-02-15T00:45:43.819Z,0
2018-02-15T00:46:44.111Z,0
2018-02-15T00:47:43.259Z,0
2018-02-15T00:48:43.765Z,0
2018-02-15T00:49:43.940Z,0
2018-02-15T00:50:43.712Z,0
2018-02-15T00:51:43.423Z,0
2018-02-15T00:52:43.139Z,0
2018-02-15T00:53:43.416Z,0
2018-02-15T00:54:43.622Z,0
2018-02-15T00:55:43.076Z,0
2018-02-15T00:56:43.847Z,0
2018-02-15T00:57:43.304Z,0
2018-02-15T00:58:43.803Z,0
2018-02-15T00:59:43.777Z,0
2018-02-15T01:00:42.962Z,0
2018-02-15T01:01:43.465Z,0
2018-02-15T01:02:43.450Z,0
2018-02-15T01:03:43.683Z,0
2018-02-15T01:04:43.408Z,0
2018-02-15T01:05:43.639Z,0
2018-02-15T01:06:43.355Z,0
2018-02-15T01:07:43.337Z,0
2018-02-15T01:08:43.575Z,0
2018-02-15T01:09:42.765Z,0
2018-02-15T01:10:42.741Z,0
2018-02-15T01:11:43.244Z,0
2018-02-15T01:12:43.225Z,0
2018-02-15T01:13:42.938Z,0
2018-02-15T01:14:43.266Z,0
2018-02-15T01:15:43.157Z,0
2018-02-15T01:16:42.875Z,0
2018-02-15T01:17:43.111Z,0
2018-02-15T01:18:43.029Z,0
2018-02-15T01:19:42.803Z,0
2018-02-15T01:20:43.052Z,0
2018-02-15T01:21:42.756Z,0
2018-02-15T01:22:43.005Z,0
2018-02-15T01:23:42.983Z,0
2018-02-15T01:24:42.698Z,0
2018-02-15T01:25:42.409Z,0
2018-02-15T01:26:42.916Z,0
2018-02-15T01:27:42.899Z,0
2018-02-15T01:28:42.608Z,0
2018-02-15T01:29:42.588Z,0
2018-02-15T01:30:43.087Z,0
2018-02-15T01:31:42.281Z,0
2018-02-15T01:32:43.045Z,0
2018-02-15T01:33:42.764Z,0
2018-02-15T01:34:43.014Z,0
2018-02-15T01:35:42.720Z,0
2018-02-15T01:36:42.427Z,0
2018-02-15T01:37:42.945Z,0
2018-02-15T01:38:42.385Z,0
2018-02-15T01:39:42.363Z,0
2018-02-15T01:40:42.606Z,0
2018-02-15T01:41:42.587Z,0
2018-02-15T01:42:42.557Z,0
2018-02-15T01:43:42.808Z,0
2018-02-15T01:44:42.250Z,0
2018-02-15T01:45:42.498Z,0
2018-02-15T01:46:41.958Z,0
2018-02-15T01:47:42.188Z,0
2018-02-15T01:48:42.436Z,0
2018-02-15T01:49:41.879Z,0
2018-02-15T01:50:42.397Z,0
2018-02-15T01:51:42.100Z,0
2018-02-15T01:52:41.832Z,0
2018-02-15T01:53:42.057Z,0
2018-02-15T01:54:42.563Z,0
2018-02-15T01:55:42.551Z,0
2018-02-15T01:56:42.275Z,0
2018-02-15T01:57:42.500Z,0
2018-02-15T01:58:42.234Z,0
2018-02-15T01:59:42.192Z,0
2018-02-15T02:00:42.171Z,0
2018-02-15T02:01:41.881Z,0
2018-02-15T02:02:42.133Z,0
2018-02-15T02:03:42.099Z,0
2018-02-15T02:04:42.091Z,0
2018-02-15T02:05:41.830Z,0
2018-02-15T02:06:42.030Z,0
2018-02-15T02:07:42.012Z,0
2018-02-15T02:08:41.998Z,0
2018-02-15T02:09:42.232Z,0
2018-02-15T02:10:41.693Z,0
2018-02-15T02:11:41.671Z,0
2018-02-15T02:12:41.896Z,0
2018-02-15T02:13:41.621Z,0
2018-02-15T02:14:41.599Z,0
2018-02-15T02:15:41.834Z,0
2018-02-15T02:16:42.092Z,0
2018-02-15T02:17:41.525Z,0
2018-02-15T02:18:41.507Z,0
2018-02-15T02:19:41.487Z,0
2018-02-15T02:20:41.735Z,0
2018-02-15T02:21:41.442Z,0
2018-02-15T02:22:41.692Z,0
2018-02-15T02:23:41.394Z,0
2018-02-15T02:24:41.646Z,0
2018-02-15T02:25:41.629Z,0
2018-02-15T02:26:41.334Z,0
2018-02-15T02:27:41.838Z,0
2018-02-15T02:28:41.838Z,0
2018-02-15T02:29:41.539Z,0
2018-02-15T02:30:41.779Z,0
2018-02-15T02:31:41.483Z,0
2018-02-15T02:32:41.202Z,0
2018-02-15T02:33:41.440Z,0
2018-02-15T02:34:41.420Z,0
2018-02-15T02:35:41.674Z,0
2018-02-15T02:36:41.111Z,0
2018-02-15T02:37:41.085Z,0
2018-02-15T02:38:40.797Z,0
2018-02-15T02:39:41.313Z,0
2018-02-15T02:40:41.553Z,0
2018-02-15T02:41:40.996Z,0
2018-02-15T02:42:40.718Z,0
2018-02-15T02:43:40.963Z,0
2018-02-15T02:44:41.200Z,0
2018-02-15T02:45:41.192Z,0
2018-02-15T02:46:40.630Z,0
2018-02-15T02:47:41.138Z,0
2018-02-15T02:48:41.110Z,0
2018-02-15T02:49:41.361Z,0
2018-02-15T02:50:41.070Z,0
2018-02-15T02:51:41.315Z,0
2018-02-15T02:52:40.500Z,0
2018-02-15T02:53:40.739Z,0
2018-02-15T02:54:40.981Z,0
2018-02-15T02:55:41.221Z,0
2018-02-15T02:56:40.935Z,0
2018-02-15T02:57:40.916Z,0
2018-02-15T02:58:40.635Z,0
2018-02-15T02:59:40.877Z,0
2018-02-15T03:00:41.120Z,0
2018-02-15T03:01:40.823Z,0
2018-02-15T03:02:40.548Z,0
2018-02-15T03:03:40.786Z,0
2018-02-15T03:04:41.033Z,0
2018-02-15T03:05:40.737Z,0
2018-02-15T03:06:40.716Z,0
2018-02-15T03:07:40.700Z,0
2018-02-15T03:08:40.671Z,0
2018-02-15T03:09:40.647Z,0
2018-02-15T03:10:40.885Z,0
2018-02-15T03:11:40.625Z,0
2018-02-15T03:12:40.584Z,0
2018-02-15T03:13:40.822Z,0
2018-02-15T03:14:40.269Z,0
2018-02-15T03:15:40.783Z,0
2018-02-15T03:16:40.509Z,0
2018-02-15T03:17:40.736Z,0
2018-02-15T03:18:40.712Z,0
2018-02-15T03:19:40.373Z,0
2018-02-15T03:20:39.894Z,0
2018-02-15T03:21:40.387Z,0
2018-02-15T03:22:40.359Z,0
2018-02-15T03:23:40.346Z,0
2018-02-15T03:24:40.059Z,0
2018-02-15T03:25:40.572Z,0
2018-02-15T03:26:39.774Z,0
2018-02-15T03:27:40.006Z,0
2018-02-15T03:28:40.251Z,0
2018-02-15T03:29:40.474Z,0
2018-02-15T03:30:40.207Z,0
2018-02-15T03:31:40.177Z,0
2018-02-15T03:32:40.419Z,0
2018-02-15T03:33:40.331Z,0
2018-02-15T03:34:40.104Z,0
2018-02-15T03:35:39.816Z,0
2018-02-15T03:36:40.324Z,0
2018-02-15T03:37:40.043Z,0
2018-02-15T03:38:39.776Z,0
2018-02-15T03:39:39.732Z,0
2018-02-15T03:40:40.245Z,0
2018-02-15T03:41:39.952Z,0
2018-02-15T03:42:40.194Z,0
2018-02-15T03:43:39.904Z,0
2018-02-15T03:44:39.620Z,0
2018-02-15T03:45:40.133Z,0
2018-02-15T03:46:39.580Z,0
2018-02-15T03:47:39.560Z,0
2018-02-15T03:48:39.796Z,0
2018-02-15T03:49:39.245Z,0
2018-02-15T03:50:39.488Z,0
2018-02-15T03:51:39.995Z,0
2018-02-15T03:52:39.450Z,0
2018-02-15T03:53:39.691Z,0
2018-02-15T03:54:39.409Z,0
2018-02-15T03:55:39.385Z,0
2018-02-15T03:56:39.626Z,0
2018-02-15T03:57:39.339Z,0
2018-02-15T03:58:39.311Z,0
2018-02-15T03:59:39.558Z,0
2018-02-15T04:00:39.541Z,0
2018-02-15T04:01:39.250Z,0
2018-02-15T04:02:39.234Z,0
2018-02-15T04:03:39.471Z,0
2018-02-15T04:04:39.447Z,0
2018-02-15T04:05:39.160Z,0
2018-02-15T04:06:39.403Z,0
2018-02-15T04:07:39.650Z,0
2018-02-15T04:08:39.096Z,0
2018-02-15T04:09:39.336Z,0
2018-02-15T04:10:39.052Z,0
2018-02-15T04:11:38.772Z,0
2018-02-15T04:12:39.557Z,0
2018-02-15T04:13:38.989Z,0
2018-02-15T04:14:38.976Z,0
2018-02-15T04:15:39.217Z,0
2018-02-15T04:16:38.925Z,0
2018-02-15T04:17:39.259Z,0
2018-02-15T04:18:39.145Z,0
2018-02-15T04:19:39.135Z,0
2018-02-15T04:20:38.838Z,0
2018-02-15T04:21:38.812Z,0
2018-02-15T04:22:39.058Z,0
2018-02-15T04:23:39.042Z,0
2018-02-15T04:24:39.050Z,0
2018-02-15T04:25:38.731Z,0
2018-02-15T04:26:38.908Z,0
2018-02-15T04:27:39.212Z,0
2018-02-15T04:28:38.929Z,0
2018-02-15T04:29:38.906Z,0
2018-02-15T04:30:39.146Z,0
2018-02-15T04:31:38.598Z,0
2018-02-15T04:32:38.315Z,0
2018-02-15T04:33:38.821Z,0
2018-02-15T04:34:39.061Z,0
2018-02-15T04:35:39.041Z,0
2018-02-15T04:36:38.766Z,0
2018-02-15T04:37:38.482Z,0
2018-02-15T04:38:38.712Z,0
2018-02-15T04:39:38.690Z,0
2018-02-15T04:40:38.665Z,0
2018-02-15T04:41:38.652Z,0
2018-02-15T04:42:38.362Z,0
2018-02-15T04:43:38.600Z,0
2018-02-15T04:44:38.577Z,0
2018-02-15T04:45:38.560Z,0
2018-02-15T04:46:38.802Z,0
2018-02-15T04:47:38.774Z,0
2018-02-15T04:48:38.491Z,0
2018-02-15T04:49:38.470Z,0
2018-02-15T04:50:38.177Z,0
2018-02-15T04:51:38.425Z,0
2018-02-15T04:52:38.409Z,0
2018-02-15T04:53:38.381Z,0
2018-02-15T04:54:38.353Z,0
2018-02-15T04:55:38.601Z,0
2018-02-15T04:56:38.042Z,0
2018-02-15T04:57:38.024Z,0
2018-02-15T04:58:37.993Z,0
2018-02-15T04:59:37.982Z,0
2018-02-15T05:00:38.215Z,0
2018-02-15T05:01:37.929Z,0
2018-02-15T05:02:38.185Z,0
2018-02-15T05:03:37.621Z,0
2018-02-15T05:04:37.597Z,0
2018-02-15T05:05:37.580Z,0
2018-02-15T05:06:37.813Z,0
2018-02-15T05:07:38.317Z,0
2018-02-15T05:08:38.034Z,0
2018-02-15T05:09:38.002Z,0
2018-02-15T05:10:37.718Z,0
2018-02-15T05:11:37.960Z,0
2018-02-15T05:12:37.935Z,0
2018-02-15T05:13:38.184Z,0
2018-02-15T05:14:37.624Z,0
2018-02-15T05:15:37.637Z,0
2018-02-15T05:16:37.580Z,0
2018-02-15T05:17:37.824Z,0
2018-02-15T05:18:37.550Z,0
2018-02-15T05:19:37.455Z,0
2018-02-15T05:20:37.500Z,0
2018-02-15T05:21:37.466Z,0
2018-02-15T05:22:37.180Z,0
2018-02-15T05:23:37.149Z,0
2018-02-15T05:24:37.667Z,0
2018-02-15T05:25:37.116Z,0
2018-02-15T05:26:37.345Z,0
2018-02-15T05:27:37.322Z,0
2018-02-15T05:28:37.306Z,0
2018-02-15T05:29:37.807Z,0
2018-02-15T05:30:37.249Z,0
2018-02-15T05:31:37.486Z,0
2018-02-15T05:32:36.950Z,0
2018-02-15T05:33:37.176Z,0
2018-02-15T05:34:37.159Z,0
2018-02-15T05:35:37.126Z,0
2018-02-15T05:36:37.638Z,0
2018-02-15T05:37:37.082Z,0
2018-02-15T05:38:37.072Z,0
2018-02-15T05:39:37.564Z,0
2018-02-15T05:40:37.015Z,0
2018-02-15T05:41:37.010Z,0
2018-02-15T05:42:36.973Z,0
2018-02-15T05:43:36.940Z,0
2018-02-15T05:44:37.180Z,0
2018-02-15T05:45:37.421Z,0
2018-02-15T05:46:36.874Z,0
2018-02-15T05:47:36.850Z,0
2018-02-15T05:48:36.826Z,0
2018-02-15T05:49:36.801Z,0
2018-02-15T05:50:37.036Z,0
2018-02-15T05:51:37.029Z,0
2018-02-15T05:52:36.730Z,0
2018-02-15T05:53:36.710Z,0
2018-02-15T05:54:37.205Z,0
2018-02-15T05:55:36.655Z,0
2018-02-15T05:56:36.635Z,0
2018-02-15T05:57:36.879Z,0
2018-02-15T05:58:36.590Z,0
2018-02-15T05:59:36.820Z,0
2018-02-15T06:00:36.805Z,0
2018-02-15T06:01:36.819Z,0
2018-02-15T06:02:36.762Z,0
2018-02-15T06:03:36.469Z,0
2018-02-15T06:04:36.448Z,0
2018-02-15T06:05:36.686Z,0
2018-02-15T06:06:36.659Z,0
2018-02-15T06:07:36.639Z,0
2018-02-15T06:08:36.880Z,0
2018-02-15T06:09:36.372Z,0
2018-02-15T06:10:36.836Z,0
2018-02-15T06:11:36.275Z,0
2018-02-15T06:12:36.523Z,0
2018-02-15T06:13:36.232Z,0
2018-02-15T06:14:36.483Z,0
2018-02-15T06:15:36.458Z,0
2018-02-15T06:16:36.757Z,0
2018-02-15T06:17:36.400Z,0
2018-02-15T06:18:36.115Z,0
2018-02-15T06:19:36.354Z,0
2018-02-15T06:20:36.072Z,0
2018-02-15T06:21:36.307Z,0
2018-02-15T06:22:36.015Z,0
2018-02-15T06:23:35.992Z,0
2018-02-15T06:24:35.704Z,4
2018-02-15T06:25:36.208Z,4
2018-02-15T06:26:36.180Z,4
2018-02-15T06:27:36.166Z,0
2018-02-15T06:28:36.401Z,4
2018-02-15T06:29:36.113Z,8
2018-02-15T06:30:36.085Z,4
2018-02-15T06:31:35.803Z,8
2018-02-15T06:32:36.042Z,8
2018-02-15T06:33:36.025Z,12
2018-02-15T06:34:35.736Z,8
2018-02-15T06:35:36.240Z,12
2018-02-15T06:36:35.950Z,16
2018-02-15T06:37:35.927Z,16
2018-02-15T06:38:35.378Z,16
2018-02-15T06:39:36.139Z,20
2018-02-15T06:40:36.112Z,24
2018-02-15T06:41:35.828Z,24
2018-02-15T06:42:35.805Z,32
2018-02-15T06:43:35.514Z,32
2018-02-15T06:44:35.494Z,36
2018-02-15T06:45:35.479Z,40
2018-02-15T06:46:35.178Z,44
2018-02-15T06:47:35.686Z,44
2018-02-15T06:48:35.131Z,52
2018-02-15T06:49:35.641Z,56
2018-02-15T06:50:35.344Z,56
2018-02-15T06:51:35.586Z,64
2018-02-15T06:52:35.563Z,80
2018-02-15T06:53:35.805Z,88
2018-02-15T06:54:35.259Z,84
2018-02-15T06:55:35.230Z,96
2018-02-15T06:56:35.483Z,100
2018-02-15T06:57:35.209Z,116
2018-02-15T06:58:35.697Z,128
2018-02-15T06:59:35.131Z,132
2018-02-15T07:00:35.112Z,144
2018-02-15T07:01:35.084Z,152
2018-02-15T07:02:34.798Z,156
2018-02-15T07:03:35.570Z,160
2018-02-15T07:04:35.027Z,160
2018-02-15T07:05:35.524Z,168
2018-02-15T07:06:34.969Z,176
2018-02-15T07:07:35.253Z,184
2018-02-15T07:08:35.177Z,196
2018-02-15T07:09:34.890Z,212
2018-02-15T07:10:35.134Z,232
2018-02-15T07:11:34.575Z,260
2018-02-15T07:12:34.826Z,288
2018-02-15T07:13:34.790Z,312
2018-02-15T07:14:34.512Z,324
2018-02-15T07:15:35.278Z,340
2018-02-15T07:16:34.994Z,356
2018-02-15T07:17:34.436Z,372
2018-02-15T07:18:35.203Z,388
2018-02-15T07:19:34.859Z,396
2018-02-15T07:20:34.893Z,396
2018-02-15T07:21:34.606Z,424
2018-02-15T07:22:34.847Z,452
2018-02-15T07:23:34.817Z,476
2018-02-15T07:24:34.792Z,524
2018-02-15T07:25:34.279Z,560
2018-02-15T07:26:34.745Z,592
2018-02-15T07:27:34.994Z,620
2018-02-15T07:28:34.971Z,640
2018-02-15T07:29:34.946Z,652
2018-02-15T07:30:34.125Z,648
2018-02-15T07:31:34.102Z,620
2018-02-15T07:32:34.873Z,592
2018-02-15T07:33:34.324Z,600
2018-02-15T07:34:34.569Z,608
2018-02-15T07:35:34.536Z,624
2018-02-15T07:36:34.512Z,564
2018-02-15T07:37:34.489Z,588
2018-02-15T07:38:34.195Z,648
2018-02-15T07:39:34.176Z,620
2018-02-15T07:40:33.889Z,616
2018-02-15T07:41:34.127Z,644
2018-02-15T07:42:34.377Z,632
2018-02-15T07:43:34.351Z,628
2018-02-15T07:44:34.317Z,688
2018-02-15T07:45:34.027Z,708
2018-02-15T07:46:34.274Z,684
2018-02-15T07:47:34.514Z,700
2018-02-15T07:48:34.230Z,712
2018-02-15T07:49:34.256Z,696
2018-02-15T07:50:34.175Z,692
2018-02-15T07:51:33.625Z,668
2018-02-15T07:52:33.873Z,728
2018-02-15T07:53:34.112Z,708
2018-02-15T07:54:34.088Z,744
2018-02-15T07:55:34.067Z,720
2018-02-15T07:56:34.040Z,760
2018-02-15T07:57:34.022Z,816
2018-02-15T07:58:33.729Z,820
2018-02-15T07:59:33.706Z,892
2018-02-15T08:00:33.675Z,900
2018-02-15T08:01:33.388Z,928
2018-02-15T08:02:33.630Z,928
2018-02-15T08:03:33.878Z,880
2018-02-15T08:04:33.591Z,868
2018-02-15T08:05:33.558Z,904
2018-02-15T08:06:33.540Z,972
2018-02-15T08:07:33.780Z,1040
2018-02-15T08:08:34.018Z,1052
2018-02-15T08:09:33.467Z,1012
2018-02-15T08:10:33.724Z,1008
2018-02-15T08:11:33.683Z,996
2018-02-15T08:12:33.403Z,984
2018-02-15T08:13:33.380Z,1016
2018-02-15T08:14:33.614Z,1036
2018-02-15T08:15:33.853Z,1056
2018-02-15T08:16:33.572Z,1064
2018-02-15T08:17:33.551Z,1040
2018-02-15T08:18:33.531Z,1044
2018-02-15T08:19:32.971Z,1052
2018-02-15T08:20:33.470Z,1056
2018-02-15T08:21:33.714Z,1080
2018-02-15T08:22:32.906Z,1080
2018-02-15T08:23:33.145Z,1080
2018-02-15T08:24:33.387Z,1072
2018-02-15T08:25:33.618Z,1088
2018-02-15T08:26:33.069Z,1064
2018-02-15T08:27:32.781Z,1048
2018-02-15T08:28:33.565Z,1060
2018-02-15T08:29:33.002Z,1056
2018-02-15T08:30:33.510Z,1068
2018-02-15T08:31:33.485Z,1084
2018-02-15T08:32:33.195Z,1168
2018-02-15T08:33:33.175Z,1236
2018-02-15T08:34:33.418Z,1320
2018-02-15T08:35:33.135Z,1408
2018-02-15T08:36:32.845Z,1428
2018-02-15T08:37:33.522Z,1472
2018-02-15T08:38:33.069Z,1444
2018-02-15T08:39:33.038Z,1444
2018-02-15T08:40:33.008Z,1456
2018-02-15T08:41:32.989Z,1440
2018-02-15T08:42:32.971Z,1412
2018-02-15T08:43:33.206Z,1412
2018-02-15T08:44:32.917Z,1468
2018-02-15T08:45:32.634Z,1568
2018-02-15T08:46:32.620Z,1580
2018-02-15T08:47:32.852Z,1640
2018-02-15T08:48:32.834Z,1636
2018-02-15T08:49:32.540Z,1612
2018-02-15T08:50:33.043Z,1632
2018-02-15T08:51:32.496Z,1696
2018-02-15T08:52:32.471Z,1716
2018-02-15T08:53:32.999Z,1636
2018-02-15T08:54:32.696Z,1584
2018-02-15T08:55:32.672Z,1556
2018-02-15T08:56:32.649Z,1536
2018-02-15T08:57:32.625Z,1564
2018-02-15T08:58:32.594Z,1528
2018-02-15T08:59:32.051Z,1556
2018-02-15T09:00:32.552Z,1536
2018-02-15T09:01:32.792Z,1484
2018-02-15T09:02:32.249Z,1516
2018-02-15T09:03:32.495Z,1560
2018-02-15T09:04:31.931Z,1556
2018-02-15T09:05:32.442Z,1608
2018-02-15T09:06:32.411Z,1656
2018-02-15T09:07:32.132Z,1700
2018-02-15T09:08:32.631Z,1872
2018-02-15T09:09:31.816Z,1756
2018-02-15T09:10:32.326Z,1716
2018-02-15T09:11:32.304Z,1772
2018-02-15T09:12:32.016Z,1836
2018-02-15T09:13:32.262Z,1920
2018-02-15T09:14:32.233Z,1956
2018-02-15T09:15:32.202Z,1996
2018-02-15T09:16:32.184Z,2008
2018-02-15T09:17:32.171Z,2036
2018-02-15T09:18:31.873Z,2072
2018-02-15T09:19:32.049Z,2160
2018-02-15T09:20:32.104Z,2364
2018-02-15T09:21:31.802Z,2300
2018-02-15T09:22:32.047Z,2496
2018-02-15T09:23:32.291Z,2528
2018-02-15T09:24:32.263Z,2580
2018-02-15T09:25:31.450Z,2564
2018-02-15T09:26:31.423Z,2556
2018-02-15T09:27:31.669Z,2460
2018-02-15T09:28:31.656Z,2432
2018-02-15T09:29:31.887Z,2452
2018-02-15T09:30:32.126Z,2580
2018-02-15T09:31:32.111Z,2592
2018-02-15T09:32:31.821Z,2736
2018-02-15T09:33:31.997Z,2776
2018-02-15T09:34:31.775Z,2812
2018-02-15T09:35:31.492Z,2964
2018-02-15T09:36:31.461Z,3028
2018-02-15T09:37:31.439Z,3140
2018-02-15T09:38:31.944Z,2936
2018-02-15T09:39:31.395Z,3188
2018-02-15T09:40:31.919Z,3348
2018-02-15T09:41:31.882Z,3480
2018-02-15T09:42:31.380Z,3604
2018-02-15T09:43:31.838Z,3600
2018-02-15T09:44:31.283Z,3492
2018-02-15T09:45:31.785Z,3520
2018-02-15T09:46:31.244Z,3388
2018-02-15T09:47:31.750Z,3316
2018-02-15T09:48:31.460Z,3332
2018-02-15T09:49:31.698Z,2912
2018-02-15T09:50:31.419Z,2992
2018-02-15T09:51:31.395Z,2916
2018-02-15T09:52:31.125Z,2908
2018-02-15T09:53:31.343Z,3004
2018-02-15T09:54:31.423Z,2904
2018-02-15T09:55:31.304Z,2768
2018-02-15T09:56:31.282Z,2612
2018-02-15T09:57:31.254Z,2580
2018-02-15T09:58:30.966Z,2640
2018-02-15T09:59:30.948Z,2716
2018-02-15T10:00:31.450Z,2908
2018-02-15T10:01:31.171Z,2904
2018-02-15T10:02:31.148Z,2920
2018-02-15T10:03:31.123Z,3012
2018-02-15T10:04:31.109Z,3112
2018-02-15T10:05:30.549Z,2984
2018-02-15T10:06:30.789Z,3124
2018-02-15T10:07:30.509Z,3292
2018-02-15T10:08:31.008Z,3436
2018-02-15T10:09:30.998Z,3296
2018-02-15T10:10:30.757Z,3148
2018-02-15T10:11:30.686Z,3172
2018-02-15T10:12:30.929Z,3472
2018-02-15T10:13:30.372Z,3484
2018-02-15T10:14:31.145Z,3680
2018-02-15T10:15:30.932Z,3324
2018-02-15T10:16:30.833Z,3108
2018-02-15T10:17:30.811Z,2664
2018-02-15T10:18:30.529Z,2616
2018-02-15T10:19:30.769Z,2668
2018-02-15T10:20:30.744Z,2836
2018-02-15T10:21:30.720Z,2620
2018-02-15T10:22:30.706Z,2500
2018-02-15T10:23:30.944Z,2400
2018-02-15T10:24:30.663Z,2376
2018-02-15T10:25:30.636Z,2580
2018-02-15T10:26:30.893Z,2676
2018-02-15T10:27:30.325Z,2960
2018-02-15T10:28:30.842Z,3072
2018-02-15T10:29:30.847Z,3280
2018-02-15T10:30:30.536Z,3300
2018-02-15T10:31:29.978Z,3788
2018-02-15T10:32:30.216Z,3548
2018-02-15T10:33:30.196Z,3884
2018-02-15T10:34:30.179Z,4452
2018-02-15T10:35:29.890Z,3916
2018-02-15T10:36:30.142Z,3636
2018-02-15T10:37:30.101Z,3376
2018-02-15T10:38:30.346Z,3072
2018-02-15T10:39:30.596Z,3240
2018-02-15T10:40:30.304Z,3032
2018-02-15T10:41:30.276Z,2900
2018-02-15T10:42:30.534Z,3088
2018-02-15T10:43:30.239Z,2992
2018-02-15T10:44:29.685Z,2844
2018-02-15T10:45:29.931Z,2672
2018-02-15T10:46:29.908Z,2480
2018-02-15T10:47:29.880Z,2380
2018-02-15T10:48:30.400Z,2452
2018-02-15T10:49:30.140Z,2444
2018-02-15T10:50:30.080Z,3084
2018-02-15T10:51:30.059Z,3092
2018-02-15T10:52:30.038Z,3132
2018-02-15T10:53:29.748Z,3172
2018-02-15T10:54:29.719Z,3192
2018-02-15T10:55:29.963Z,3020
2018-02-15T10:56:30.001Z,3304
2018-02-15T10:57:29.933Z,2984
2018-02-15T10:58:30.158Z,2736
2018-02-15T10:59:29.877Z,2848
2018-02-15T11:00:29.855Z,2308
2018-02-15T11:01:30.098Z,2364
2018-02-15T11:02:29.547Z,2152
2018-02-15T11:03:29.788Z,2596
2018-02-15T11:04:29.784Z,3596
2018-02-15T11:05:29.738Z,3936
2018-02-15T11:06:29.726Z,4216
2018-02-15T11:07:29.434Z,4316
2018-02-15T11:08:29.415Z,3644
2018-02-15T11:09:29.661Z,3548
2018-02-15T11:10:29.903Z,3324
2018-02-15T11:11:29.607Z,2948
2018-02-15T11:12:29.588Z,2840
2018-02-15T11:13:29.562Z,3292
2018-02-15T11:14:29.294Z,2960
2018-02-15T11:15:29.252Z,2860
2018-02-15T11:16:29.233Z,3360
2018-02-15T11:17:29.210Z,3196
2018-02-15T11:18:29.460Z,3180
2018-02-15T11:19:29.834Z,3172
2018-02-15T11:20:28.879Z,2884
2018-02-15T11:21:29.639Z,2468
2018-02-15T11:22:29.633Z,2472
2018-02-15T11:23:29.341Z,2276
2018-02-15T11:24:29.059Z,2260
2018-02-15T11:25:29.566Z,1816
2018-02-15T11:26:29.011Z,2052
2018-02-15T11:27:29.531Z,2044
2018-02-15T11:28:29.225Z,1884
2018-02-15T11:29:28.940Z,1900
2018-02-15T11:30:29.188Z,1856
2018-02-15T11:31:29.161Z,1884
2018-02-15T11:32:29.144Z,1996
2018-02-15T11:33:29.383Z,2112
2018-02-15T11:34:28.879Z,2196
2018-02-15T11:35:29.336Z,2020
2018-02-15T11:36:28.783Z,2084
2018-02-15T11:37:28.769Z,2076
2018-02-15T11:38:29.285Z,2048
2018-02-15T11:39:28.729Z,2068
2018-02-15T11:40:28.693Z,2248
2018-02-15T11:41:28.934Z,2168
2018-02-15T11:42:29.180Z,2228
2018-02-15T11:43:28.628Z,2172
2018-02-15T11:44:28.619Z,2020
2018-02-15T11:45:29.111Z,2180
2018-02-15T11:46:28.561Z,2080
2018-02-15T11:47:28.277Z,2132
2018-02-15T11:48:28.520Z,2248
2018-02-15T11:49:29.026Z,2072
2018-02-15T11:50:29.004Z,2460
2018-02-15T11:51:28.754Z,2804
2018-02-15T11:52:28.432Z,2844
2018-02-15T11:53:28.663Z,2804
2018-02-15T11:54:28.644Z,2724
2018-02-15T11:55:28.364Z,2512
2018-02-15T11:56:28.374Z,2372
2018-02-15T11:57:28.319Z,2524
2018-02-15T11:58:28.829Z,2640
2018-02-15T11:59:28.532Z,2600
2018-02-15T12:00:28.514Z,2384
2018-02-15T12:01:28.236Z,2396
2018-02-15T12:02:28.731Z,2412
2018-02-15T12:03:28.449Z,2592
2018-02-15T12:04:28.428Z,2728
2018-02-15T12:05:28.660Z,3016
2018-02-15T12:06:28.382Z,3212
2018-02-15T12:07:28.360Z,3140
2018-02-15T12:08:28.331Z,2996
2018-02-15T12:09:28.048Z,2916
2018-02-15T12:10:28.031Z,2960
2018-02-15T12:11:28.530Z,2956
2018-02-15T12:12:27.719Z,2676
2018-02-15T12:13:28.543Z,2876
2018-02-15T12:14:28.208Z,3744
2018-02-15T12:15:28.439Z,4248
2018-02-15T12:16:28.161Z,3716
2018-02-15T12:17:28.410Z,3324
2018-02-15T12:18:27.586Z,2884
2018-02-15T12:19:28.091Z,2508
2018-02-15T12:20:28.072Z,2172
2018-02-15T12:21:27.783Z,1856
2018-02-15T12:22:28.038Z,1944
2018-02-15T12:23:28.270Z,1808
2018-02-15T12:24:27.991Z,1652
2018-02-15T12:25:27.695Z,1544
2018-02-15T12:26:27.670Z,1852
2018-02-15T12:27:27.913Z,2092
2018-02-15T12:28:28.189Z,2132
2018-02-15T12:29:27.878Z,2296
2018-02-15T12:30:27.318Z,2648
2018-02-15T12:31:27.294Z,3288
2018-02-15T12:32:28.069Z,2796
2018-02-15T12:33:27.517Z,3016
2018-02-15T12:34:27.488Z,2956
2018-02-15T12:35:27.735Z,3444
2018-02-15T12:36:27.461Z,3828
2018-02-15T12:37:27.170Z,3928
2018-02-15T12:38:27.410Z,4156
2018-02-15T12:39:27.382Z,3692
2018-02-15T12:40:27.898Z,3660
2018-02-15T12:41:27.089Z,3824
2018-02-15T12:42:27.062Z,3584
2018-02-15T12:43:27.563Z,3112
2018-02-15T12:44:27.012Z,2728
2018-02-15T12:45:27.255Z,2532
2018-02-15T12:46:27.249Z,2328
2018-02-15T12:47:27.207Z,2276
2018-02-15T12:48:27.192Z,2356
2018-02-15T12:49:27.171Z,2368
2018-02-15T12:50:27.153Z,2648
2018-02-15T12:51:27.393Z,2676
2018-02-15T12:52:27.364Z,2912
2018-02-15T12:53:27.078Z,3092
2018-02-15T12:54:27.628Z,3128
2018-02-15T12:55:27.042Z,3144
2018-02-15T12:56:26.755Z,3068
2018-02-15T12:57:26.998Z,2664
2018-02-15T12:58:27.506Z,2324
2018-02-15T12:59:27.485Z,2284
2018-02-15T13:00:26.921Z,2268
2018-02-15T13:01:26.633Z,2452
2018-02-15T13:02:27.147Z,2352
2018-02-15T13:03:26.870Z,2440
2018-02-15T13:04:27.368Z,2032
2018-02-15T13:05:26.817Z,1872
2018-02-15T13:06:27.333Z,1796
2018-02-15T13:07:27.049Z,1764
2018-02-15T13:08:27.332Z,1760
2018-02-15T13:09:27.002Z,1760
2018-02-15T13:10:27.243Z,1824
2018-02-15T13:11:26.946Z,1788
2018-02-15T13:12:27.196Z,1892
2018-02-15T13:13:26.918Z,1828
2018-02-15T13:14:27.239Z,1832
2018-02-15T13:15:27.141Z,1732
2018-02-15T13:16:26.849Z,1692
2018-02-15T13:17:26.821Z,1976
2018-02-15T13:18:27.067Z,2148
2018-02-15T13:19:27.253Z,1916
2018-02-15T13:20:26.761Z,2168
2018-02-15T13:21:26.473Z,1968
2018-02-15T13:22:26.976Z,1608
2018-02-15T13:23:26.723Z,1456
2018-02-15T13:24:26.668Z,1388
2018-02-15T13:25:26.385Z,1368
2018-02-15T13:26:26.892Z,1272
2018-02-15T13:27:26.077Z,1236
2018-02-15T13:28:26.578Z,1244
2018-02-15T13:29:26.825Z,1328
2018-02-15T13:30:26.537Z,1292
2018-02-15T13:31:26.528Z,1284
2018-02-15T13:32:26.233Z,1208
2018-02-15T13:33:26.474Z,1112
2018-02-15T13:34:26.458Z,1028
2018-02-15T13:35:26.699Z,1248
2018-02-15T13:36:26.140Z,1700
2018-02-15T13:37:26.393Z,1828
2018-02-15T13:38:26.304Z,1384
2018-02-15T13:39:25.819Z,1352
2018-02-15T13:40:26.592Z,1212
2018-02-15T13:41:26.570Z,1420
2018-02-15T13:42:26.547Z,1428
2018-02-15T13:43:26.523Z,1292
2018-02-15T13:44:26.233Z,1320
2018-02-15T13:45:26.479Z,1328
2018-02-15T13:46:26.199Z,1500
2018-02-15T13:47:26.176Z,1728
2018-02-15T13:48:25.886Z,1920
2018-02-15T13:49:26.173Z,2364
2018-02-15T13:50:25.848Z,2328
2018-02-15T13:51:26.360Z,2256
2018-02-15T13:52:26.060Z,1976
2018-02-15T13:53:25.777Z,1704
2018-02-15T13:54:25.492Z,1692
2018-02-15T13:55:26.001Z,1596
2018-02-15T13:56:26.238Z,1600
2018-02-15T13:57:25.697Z,1620
2018-02-15T13:58:26.202Z,1724
2018-02-15T13:59:25.658Z,1964
2018-02-15T14:00:25.631Z,1988
2018-02-15T14:01:25.923Z,1992